Time;durP1;ratioP1;P1;durP2;ratioP2;P2;SDS_P1;SDS_P2;PMS_P1;PMS_P2;Temp;Humidity;BMP_temperature;BMP_pressure;BME280_temperature;BME280_humidity;BME280_pressure;Samples;Min_cycle;Max_cycle;Signal;HPM_P1;HPM_P2
2021/08/15 00:06:11;;;;;;;10.68;5.03;;;;;;;17.10;100.00;100299.38;713830;1202;114829;-80
2021/08/15 00:21:14;;;;;;;9.93;5.50;;;;;;;17.01;100.00;100281.05;713882;1194;114202;-82
2021/08/15 00:36:16;;;;;;;9.10;5.27;;;;;;;16.91;100.00;100273.36;713988;1206;114321;-81
2021/08/15 00:51:18;;;;;;;10.47;6.20;;;;;;;16.67;100.00;100256.60;713942;1202;114271;-81
2021/08/15 01:06:20;;;;;;;13.83;4.97;;;;;;;16.66;100.00;100239.06;713965;1179;114648;-81
2021/08/15 01:21:22;;;;;;;12.57;6.93;;;;;;;16.52;100.00;100253.05;714117;1205;114853;-80
2021/08/15 01:36:25;;;;;;;17.25;8.63;;;;;;;16.62;100.00;100248.36;714174;1206;115100;-81
2021/08/15 01:51:30;;;;;;;11.85;5.85;;;;;;;16.69;100.00;100236.05;714000;1192;115044;-81
2021/08/15 02:06:32;;;;;;;16.00;6.58;;;;;;;16.73;100.00;100237.34;714057;1177;115213;-80
2021/08/15 02:21:34;;;;;;;11.33;6.70;;;;;;;16.93;100.00;100226.30;713988;1202;114865;-80
2021/08/15 02:36:37;;;;;;;11.65;6.65;;;;;;;16.91;100.00;100242.38;713913;1200;115248;-80
2021/08/15 02:51:39;;;;;;;15.55;6.38;;;;;;;17.00;100.00;100229.89;713917;1206;115340;-80
2021/08/15 03:06:42;;;;;;;13.88;6.30;;;;;;;17.16;100.00;100214.86;713927;1200;115234;-80
2021/08/15 03:21:44;;;;;;;10.15;6.48;;;;;;;17.13;100.00;100208.09;713973;1200;115836;-82
2021/08/15 03:36:48;;;;;;;10.63;6.10;;;;;;;17.11;100.00;100232.09;714068;1177;114943;-82
2021/08/15 03:51:51;;;;;;;11.20;6.28;;;;;;;17.05;100.00;100259.34;714137;1202;114992;-82
2021/08/15 04:06:53;;;;;;;13.57;6.47;;;;;;;17.24;100.00;100241.28;714131;1202;115731;-81
2021/08/15 04:21:55;;;;;;;12.70;6.40;;;;;;;17.34;100.00;100233.06;714200;1200;114311;-81
2021/08/15 04:36:59;;;;;;;12.60;6.00;;;;;;;17.61;100.00;100213.88;714131;1202;114202;-80
2021/08/15 04:52:01;;;;;;;11.50;5.53;;;;;;;18.17;100.00;100199.27;714043;1202;115097;-80
2021/08/15 05:07:03;;;;;;;6.90;4.47;;;;;;;18.60;100.00;100201.97;714290;1202;115639;-82
2021/08/15 05:22:05;;;;;;;8.15;5.10;;;;;;;19.04;100.00;100194.80;714152;1200;114663;-81
2021/08/15 05:37:08;;;;;;;11.90;5.03;;;;;;;19.39;100.00;100186.86;714329;1200;114198;-82
2021/08/15 05:52:10;;;;;;;10.08;5.50;;;;;;;19.78;100.00;100206.73;713995;1202;115355;-83
2021/08/15 06:07:13;;;;;;;9.33;5.28;;;;;;;19.82;100.00;100206.35;714126;1200;114977;-80
2021/08/15 06:22:15;;;;;;;13.03;6.23;;;;;;;19.97;100.00;100215.02;714103;1200;115512;-82
2021/08/15 06:37:18;;;;;;;10.33;5.23;;;;;;;20.23;100.00;100226.77;713992;1202;115131;-81
2021/08/15 06:52:20;;;;;;;8.15;4.45;;;;;;;21.05;100.00;100232.04;714472;1202;115516;-81
2021/08/15 07:07:22;;;;;;;12.65;4.58;;;;;;;21.86;97.85;100227.42;714470;1202;114246;-80
2021/08/15 07:22:24;;;;;;;8.05;3.88;;;;;;;22.70;94.11;100222.88;714323;1197;114295;-80
2021/08/15 07:37:28;;;;;;;6.40;3.68;;;;;;;23.78;91.21;100235.28;714450;1197;114035;-79
2021/08/15 07:52:30;;;;;;;6.40;3.30;;;;;;;24.08;83.40;100236.19;715073;1200;114287;-81
2021/08/15 08:07:32;;;;;;;5.73;3.28;;;;;;;24.70;81.11;100227.06;715043;1192;114432;-80
2021/08/15 08:22:36;;;;;;;7.23;3.90;;;;;;;24.92;78.19;100224.66;715484;1178;115118;-85
2021/08/15 08:37:39;;;;;;;9.03;3.23;;;;;;;25.82;75.54;100221.80;716197;1203;114041;-81
2021/08/15 08:52:43;;;;;;;6.15;3.30;;;;;;;25.78;73.22;100222.53;715126;1202;114021;-75
2021/08/15 09:07:48;;;;;;;6.45;3.70;;;;;;;25.43;71.50;100220.72;715187;1203;114248;-74
2021/08/15 09:22:51;;;;;;;8.58;3.80;;;;;;;25.67;70.69;100216.11;714652;1200;113957;-71
2021/08/15 09:38:01;;;;;;;9.85;3.80;;;;;;;25.39;68.90;100220.36;714711;1200;113964;-75
2021/08/15 09:53:03;;;;;;;6.20;3.70;;;;;;;25.44;68.43;100217.80;715280;1202;114784;-73
2021/08/15 10:08:07;;;;;;;8.45;3.18;;;;;;;25.63;67.47;100220.33;715175;1176;115377;-73
2021/08/15 10:23:11;;;;;;;4.97;3.70;;;;;;;25.71;65.83;100219.98;714397;1200;115628;-74
2021/08/15 10:38:17;;;;;;;12.60;5.03;;;;;;;27.38;63.94;100183.86;715209;1205;115080;-73
2021/08/15 10:53:28;;;;;;;10.43;5.23;;;;;;;26.64;63.55;100187.55;714629;1183;114153;-76
2021/08/15 11:08:33;;;;;;;9.23;4.90;;;;;;;27.44;62.54;100194.66;714593;1202;114642;-74
2021/08/15 11:23:36;;;;;;;7.35;3.50;;;;;;;26.71;61.25;100182.00;714810;1203;114231;-73
2021/08/15 11:38:48;;;;;;;7.43;3.28;;;;;;;26.98;59.63;100171.42;715829;1200;114427;-71
2021/08/15 11:53:50;;;;;;;7.13;3.73;;;;;;;27.16;59.17;100180.27;714949;1202;114649;-71
2021/08/15 12:08:52;;;;;;;4.68;2.80;;;;;;;27.76;58.80;100183.22;714981;1200;115530;-70
2021/08/15 12:23:58;;;;;;;6.47;2.90;;;;;;;29.29;57.79;100177.52;715390;1200;115693;-70
2021/08/15 12:39:04;;;;;;;10.95;2.78;;;;;;;27.76;56.83;100173.24;714614;1200;114822;-71
2021/08/15 12:54:06;;;;;;;6.03;2.73;;;;;;;28.03;55.95;100176.00;714786;1201;114724;-71
2021/08/15 13:09:09;;;;;;;4.43;2.30;;;;;;;28.54;54.27;100161.33;713973;1201;115488;-72
2021/08/15 13:24:11;;;;;;;3.83;2.13;;;;;;;28.87;53.08;100160.23;714553;1202;114820;-71
2021/08/15 13:39:13;;;;;;;2.90;1.83;;;;;;;28.84;53.21;100135.67;715531;1177;115298;-72
2021/08/15 13:54:15;;;;;;;4.00;1.60;;;;;;;29.64;52.35;100150.89;714609;1193;113835;-72
2021/08/15 14:09:17;;;;;;;3.13;1.83;;;;;;;30.19;51.08;100141.28;714535;1189;113982;-74
2021/08/15 14:24:19;;;;;;;4.23;2.20;;;;;;;36.64;44.16;100123.06;714828;1200;114520;-73
2021/08/15 14:39:21;;;;;;;3.63;1.70;;;;;;;39.40;40.37;100115.51;714744;1177;114034;-72
2021/08/15 14:54:26;;;;;;;3.20;1.50;;;;;;;37.08;40.67;100098.63;714759;1204;115598;-73
2021/08/15 15:09:28;;;;;;;2.68;1.43;;;;;;;34.52;43.88;100085.25;714600;1205;114037;-72
2021/08/15 15:40:47;;;;;;;4.25;1.85;;;;;;;29.04;49.19;100060.17;713087;1177;115175;-74
2021/08/15 15:55:50;;;;;;;7.63;1.70;;;;;;;28.43;50.71;100059.81;713122;1186;114033;-81
2021/08/15 16:10:53;;;;;;;7.30;2.10;;;;;;;28.36;51.04;100049.25;713698;1178;114300;-81
2021/08/15 16:25:57;;;;;;;3.88;2.18;;;;;;;28.12;52.32;100051.52;714624;1177;113592;-72
2021/08/15 16:40:59;;;;;;;4.85;2.10;;;;;;;27.48;53.56;100059.27;714323;1180;114002;-73
2021/08/15 16:56:07;;;;;;;10.03;3.43;;;;;;;27.52;54.59;100048.81;714784;1177;113941;-77
2021/08/15 17:11:09;;;;;;;10.55;4.50;;;;;;;27.51;55.43;100047.17;714711;1177;114153;-81
2021/08/15 17:26:11;;;;;;;7.47;3.73;;;;;;;27.11;57.06;100053.69;714917;1200;115148;-75
2021/08/15 17:41:13;;;;;;;8.00;2.75;;;;;;;26.36;57.67;100046.75;715048;1200;115317;-73
2021/08/15 17:56:16;;;;;;;9.08;4.18;;;;;;;25.64;59.53;100048.20;714760;1205;114403;-75
2021/08/15 18:11:18;;;;;;;7.88;3.90;;;;;;;24.54;61.96;100064.17;714157;1178;114104;-74
2021/08/15 18:26:21;;;;;;;9.18;3.55;;;;;;;23.33;65.19;100065.91;714385;1202;115817;-75
2021/08/15 18:41:23;;;;;;;10.50;4.73;;;;;;;22.69;68.29;100071.53;714526;1200;115027;-75
2021/08/15 18:56:25;;;;;;;6.58;3.38;;;;;;;21.99;71.08;100074.34;714459;1203;115180;-74
2021/08/15 19:11:27;;;;;;;13.85;11.35;;;;;;;21.67;73.03;100085.81;714776;1202;114693;-75
2021/08/15 19:26:32;;;;;;;6.58;3.48;;;;;;;21.20;74.85;100077.16;714745;1200;114599;-72
2021/08/15 19:41:34;;;;;;;10.13;3.20;;;;;;;20.54;77.85;100065.56;714990;1202;114418;-75
2021/08/15 19:56:38;;;;;;;20.75;10.58;;;;;;;20.47;80.63;100065.58;715104;1177;113966;-74
2021/08/15 20:11:52;;;;;;;40.58;18.58;;;;;;;20.27;82.73;100061.06;715009;1202;114455;-75
2021/08/15 20:26:55;;;;;;;38.30;19.10;;;;;;;20.00;85.09;100046.90;715866;1200;114318;-74
2021/08/15 20:41:58;;;;;;;29.90;14.73;;;;;;;19.83;86.85;100033.16;715466;1188;114846;-74
2021/08/15 20:57:00;;;;;;;32.78;16.53;;;;;;;19.51;88.79;100034.70;715349;1202;115673;-74
2021/08/15 21:12:03;;;;;;;17.33;9.10;;;;;;;19.36;89.49;100013.56;715535;1200;115881;-73
2021/08/15 21:27:05;;;;;;;24.87;12.77;;;;;;;19.09;91.73;100003.64;714710;1200;114596;-75
2021/08/15 21:42:07;;;;;;;19.00;10.03;;;;;;;18.88;92.58;99982.47;714466;1202;114927;-73
2021/08/15 21:57:09;;;;;;;17.50;8.53;;;;;;;18.72;94.11;99957.86;715269;1202;114617;-73
2021/08/15 22:12:11;;;;;;;23.30;10.23;;;;;;;18.50;94.43;99969.59;714460;1202;114726;-75
2021/08/15 22:27:13;;;;;;;9.55;4.98;;;;;;;18.59;93.80;99973.73;714382;1200;114700;-73
2021/08/15 22:42:15;;;;;;;6.13;3.40;;;;;;;18.69;92.99;99950.29;715078;1200;114455;-74
2021/08/15 22:57:17;;;;;;;5.33;3.00;;;;;;;18.75;91.86;99930.08;714684;1203;115223;-74
2021/08/15 23:12:19;;;;;;;6.33;2.70;;;;;;;18.74;91.69;99915.98;714567;1176;113763;-74
2021/08/15 23:27:22;;;;;;;3.20;2.33;;;;;;;18.73;91.62;99898.40;714442;1176;113903;-75
2021/08/15 23:42:24;;;;;;;8.33;2.65;;;;;;;18.75;91.76;99893.72;714600;1176;116250;-74
2021/08/15 23:57:27;;;;;;;4.33;2.58;;;;;;;18.76;92.01;99874.08;714415;1179;114823;-74
